sensor_id;sensor_type;location;lat;lon;timestamp;P1;durP1;ratioP1;P2;durP2;ratioP2
68744;SDS011;55731;45.456;11.064;2022-11-20T00:02:21;6.30;;;3.30;;
68744;SDS011;55731;45.456;11.064;2022-11-20T00:04:57;4.40;;;2.60;;
68744;SDS011;55731;45.456;11.064;2022-11-20T00:07:34;7.40;;;3.20;;
68744;SDS011;55731;45.456;11.064;2022-11-20T00:10:11;3.90;;;2.50;;
68744;SDS011;55731;45.456;11.064;2022-11-20T00:12:48;4.10;;;2.50;;
68744;SDS011;55731;45.456;11.064;2022-11-20T00:15:24;4.80;;;2.90;;
68744;SDS011;55731;45.456;11.064;2022-11-20T00:18:00;6.40;;;3.20;;
68744;SDS011;55731;45.456;11.064;2022-11-20T00:20:38;5.90;;;2.80;;
68744;SDS011;55731;45.456;11.064;2022-11-20T00:23:14;4.20;;;3.00;;
68744;SDS011;55731;45.456;11.064;2022-11-20T00:25:50;6.40;;;3.30;;
68744;SDS011;55731;45.456;11.064;2022-11-20T00:28:27;6.50;;;3.50;;
68744;SDS011;55731;45.456;11.064;2022-11-20T00:31:09;5.30;;;3.10;;
68744;SDS011;55731;45.456;11.064;2022-11-20T00:33:46;6.70;;;3.30;;
68744;SDS011;55731;45.456;11.064;2022-11-20T00:36:23;5.60;;;3.10;;
68744;SDS011;55731;45.456;11.064;2022-11-20T00:39:00;6.00;;;2.80;;
68744;SDS011;55731;45.456;11.064;2022-11-20T00:41:36;6.80;;;2.80;;
68744;SDS011;55731;45.456;11.064;2022-11-20T00:44:13;5.40;;;2.70;;
68744;SDS011;55731;45.456;11.064;2022-11-20T00:46:54;4.30;;;2.80;;
68744;SDS011;55731;45.456;11.064;2022-11-20T00:49:30;4.40;;;2.50;;
68744;SDS011;55731;45.456;11.064;2022-11-20T00:52:07;6.10;;;2.80;;
68744;SDS011;55731;45.456;11.064;2022-11-20T00:54:44;4.80;;;2.70;;
68744;SDS011;55731;45.456;11.064;2022-11-20T00:57:20;4.30;;;2.50;;
68744;SDS011;55731;45.456;11.064;2022-11-20T00:59:57;3.90;;;2.70;;
68744;SDS011;55731;45.456;11.064;2022-11-20T01:02:34;5.40;;;2.50;;
68744;SDS011;55731;45.456;11.064;2022-11-20T01:05:11;3.90;;;2.50;;
68744;SDS011;55731;45.456;11.064;2022-11-20T01:07:48;5.40;;;3.20;;
68744;SDS011;55731;45.456;11.064;2022-11-20T01:10:25;3.30;;;2.30;;
68744;SDS011;55731;45.456;11.064;2022-11-20T01:13:02;5.70;;;2.40;;
68744;SDS011;55731;45.456;11.064;2022-11-20T01:15:55;3.70;;;2.00;;
68744;SDS011;55731;45.456;11.064;2022-11-20T01:18:38;4.20;;;2.70;;
68744;SDS011;55731;45.456;11.064;2022-11-20T01:21:19;4.60;;;2.80;;
68744;SDS011;55731;45.456;11.064;2022-11-20T01:23:57;5.40;;;2.50;;
68744;SDS011;55731;45.456;11.064;2022-11-20T01:26:41;4.40;;;2.50;;
68744;SDS011;55731;45.456;11.064;2022-11-20T01:29:21;8.00;;;2.30;;
68744;SDS011;55731;45.456;11.064;2022-11-20T01:31:58;4.30;;;2.10;;
68744;SDS011;55731;45.456;11.064;2022-11-20T01:34:34;4.10;;;2.20;;
68744;SDS011;55731;45.456;11.064;2022-11-20T01:37:11;4.20;;;2.40;;
68744;SDS011;55731;45.456;11.064;2022-11-20T01:39:48;4.90;;;2.50;;
68744;SDS011;55731;45.456;11.064;2022-11-20T01:42:25;4.90;;;2.20;;
68744;SDS011;55731;45.456;11.064;2022-11-20T01:45:50;4.20;;;2.50;;
68744;SDS011;55731;45.456;11.064;2022-11-20T01:48:53;3.50;;;2.20;;
68744;SDS011;55731;45.456;11.064;2022-11-20T01:51:38;3.30;;;1.90;;
68744;SDS011;55731;45.456;11.064;2022-11-20T01:54:22;4.10;;;2.30;;
68744;SDS011;55731;45.456;11.064;2022-11-20T01:57:05;4.50;;;2.30;;
68744;SDS011;55731;45.456;11.064;2022-11-20T01:59:47;3.80;;;2.30;;
68744;SDS011;55731;45.456;11.064;2022-11-20T02:02:30;3.70;;;2.40;;
68744;SDS011;55731;45.456;11.064;2022-11-20T02:05:16;2.80;;;1.90;;
68744;SDS011;55731;45.456;11.064;2022-11-20T02:07:58;3.60;;;2.00;;
68744;SDS011;55731;45.456;11.064;2022-11-20T02:10:37;3.50;;;2.20;;
68744;SDS011;55731;45.456;11.064;2022-11-20T02:13:14;3.50;;;2.20;;
68744;SDS011;55731;45.456;11.064;2022-11-20T02:16:04;4.00;;;2.30;;
68744;SDS011;55731;45.456;11.064;2022-11-20T02:18:44;4.10;;;2.30;;
68744;SDS011;55731;45.456;11.064;2022-11-20T02:21:35;4.90;;;2.20;;
68744;SDS011;55731;45.456;11.064;2022-11-20T02:24:16;3.70;;;2.40;;
68744;SDS011;55731;45.456;11.064;2022-11-20T02:26:57;3.70;;;2.20;;
68744;SDS011;55731;45.456;11.064;2022-11-20T02:29:40;3.70;;;2.40;;
68744;SDS011;55731;45.456;11.064;2022-11-20T02:32:25;4.70;;;2.70;;
68744;SDS011;55731;45.456;11.064;2022-11-20T02:35:49;3.80;;;2.30;;
68744;SDS011;55731;45.456;11.064;2022-11-20T02:38:30;5.10;;;2.60;;
68744;SDS011;55731;45.456;11.064;2022-11-20T02:41:08;4.10;;;2.30;;
68744;SDS011;55731;45.456;11.064;2022-11-20T02:43:44;3.90;;;2.30;;
68744;SDS011;55731;45.456;11.064;2022-11-20T02:46:22;3.80;;;2.10;;
68744;SDS011;55731;45.456;11.064;2022-11-20T02:48:58;3.50;;;2.60;;
68744;SDS011;55731;45.456;11.064;2022-11-20T02:51:34;4.30;;;2.30;;
68744;SDS011;55731;45.456;11.064;2022-11-20T02:54:11;4.50;;;2.60;;
68744;SDS011;55731;45.456;11.064;2022-11-20T02:56:48;4.20;;;2.40;;
68744;SDS011;55731;45.456;11.064;2022-11-20T02:59:24;6.00;;;2.50;;
68744;SDS011;55731;45.456;11.064;2022-11-20T03:02:01;4.30;;;2.30;;
68744;SDS011;55731;45.456;11.064;2022-11-20T03:04:37;4.10;;;2.70;;
68744;SDS011;55731;45.456;11.064;2022-11-20T03:07:13;3.70;;;2.10;;
68744;SDS011;55731;45.456;11.064;2022-11-20T03:09:54;4.70;;;2.50;;
68744;SDS011;55731;45.456;11.064;2022-11-20T03:12:33;5.90;;;2.40;;
68744;SDS011;55731;45.456;11.064;2022-11-20T03:15:12;3.50;;;2.10;;
68744;SDS011;55731;45.456;11.064;2022-11-20T03:17:48;3.80;;;2.10;;
68744;SDS011;55731;45.456;11.064;2022-11-20T03:20:26;3.90;;;2.10;;
68744;SDS011;55731;45.456;11.064;2022-11-20T03:23:02;4.50;;;2.40;;
68744;SDS011;55731;45.456;11.064;2022-11-20T03:25:40;7.80;;;2.70;;
68744;SDS011;55731;45.456;11.064;2022-11-20T03:28:15;3.40;;;2.40;;
68744;SDS011;55731;45.456;11.064;2022-11-20T03:30:53;5.20;;;2.50;;
68744;SDS011;55731;45.456;11.064;2022-11-20T03:33:31;3.50;;;1.90;;
68744;SDS011;55731;45.456;11.064;2022-11-20T03:36:11;3.50;;;2.20;;
68744;SDS011;55731;45.456;11.064;2022-11-20T03:38:48;3.70;;;2.00;;
68744;SDS011;55731;45.456;11.064;2022-11-20T03:41:25;3.30;;;2.00;;
68744;SDS011;55731;45.456;11.064;2022-11-20T03:44:03;4.20;;;2.30;;
68744;SDS011;55731;45.456;11.064;2022-11-20T03:46:42;4.20;;;2.60;;
68744;SDS011;55731;45.456;11.064;2022-11-20T03:49:18;4.30;;;2.10;;
68744;SDS011;55731;45.456;11.064;2022-11-20T03:51:55;4.50;;;2.10;;
68744;SDS011;55731;45.456;11.064;2022-11-20T03:54:33;5.30;;;2.20;;
68744;SDS011;55731;45.456;11.064;2022-11-20T03:57:10;5.50;;;2.30;;
68744;SDS011;55731;45.456;11.064;2022-11-20T03:59:47;3.60;;;2.40;;
68744;SDS011;55731;45.456;11.064;2022-11-20T04:02:24;4.60;;;2.80;;
68744;SDS011;55731;45.456;11.064;2022-11-20T04:05:01;3.60;;;2.20;;
68744;SDS011;55731;45.456;11.064;2022-11-20T04:07:39;4.20;;;2.30;;
68744;SDS011;55731;45.456;11.064;2022-11-20T04:10:15;5.40;;;2.30;;
68744;SDS011;55731;45.456;11.064;2022-11-20T04:12:52;3.30;;;2.10;;
68744;SDS011;55731;45.456;11.064;2022-11-20T04:15:29;6.70;;;2.60;;
68744;SDS011;55731;45.456;11.064;2022-11-20T04:18:08;4.00;;;2.40;;
68744;SDS011;55731;45.456;11.064;2022-11-20T04:20:46;4.50;;;2.40;;
68744;SDS011;55731;45.456;11.064;2022-11-20T04:23:22;3.80;;;2.20;;
68744;SDS011;55731;45.456;11.064;2022-11-20T04:26:05;3.80;;;2.00;;
68744;SDS011;55731;45.456;11.064;2022-11-20T04:28:43;3.20;;;2.00;;
68744;SDS011;55731;45.456;11.064;2022-11-20T04:31:25;5.00;;;2.60;;
68744;SDS011;55731;45.456;11.064;2022-11-20T04:34:05;6.00;;;2.10;;
68744;SDS011;55731;45.456;11.064;2022-11-20T04:36:46;3.80;;;2.20;;
68744;SDS011;55731;45.456;11.064;2022-11-20T04:39:22;4.60;;;2.30;;
68744;SDS011;55731;45.456;11.064;2022-11-20T04:41:59;4.30;;;2.40;;
68744;SDS011;55731;45.456;11.064;2022-11-20T04:44:54;4.10;;;2.10;;
68744;SDS011;55731;45.456;11.064;2022-11-20T04:47:32;3.00;;;1.90;;
68744;SDS011;55731;45.456;11.064;2022-11-20T04:50:12;3.80;;;2.30;;
68744;SDS011;55731;45.456;11.064;2022-11-20T04:52:48;3.60;;;2.10;;
68744;SDS011;55731;45.456;11.064;2022-11-20T04:55:25;7.30;;;2.60;;
68744;SDS011;55731;45.456;11.064;2022-11-20T04:58:02;4.90;;;2.40;;
68744;SDS011;55731;45.456;11.064;2022-11-20T05:00:37;6.20;;;2.70;;
68744;SDS011;55731;45.456;11.064;2022-11-20T05:03:14;3.80;;;2.40;;
68744;SDS011;55731;45.456;11.064;2022-11-20T05:05:50;3.50;;;2.50;;
68744;SDS011;55731;45.456;11.064;2022-11-20T05:08:27;4.90;;;2.10;;
68744;SDS011;55731;45.456;11.064;2022-11-20T05:11:06;4.30;;;2.30;;
68744;SDS011;55731;45.456;11.064;2022-11-20T05:13:43;4.20;;;2.30;;
68744;SDS011;55731;45.456;11.064;2022-11-20T05:16:22;4.70;;;2.50;;
68744;SDS011;55731;45.456;11.064;2022-11-20T05:19:02;4.90;;;2.50;;
68744;SDS011;55731;45.456;11.064;2022-11-20T05:21:40;4.50;;;2.50;;
68744;SDS011;55731;45.456;11.064;2022-11-20T05:24:16;3.50;;;2.20;;
68744;SDS011;55731;45.456;11.064;2022-11-20T05:26:53;3.50;;;2.20;;
68744;SDS011;55731;45.456;11.064;2022-11-20T05:29:29;4.40;;;2.20;;
68744;SDS011;55731;45.456;11.064;2022-11-20T05:32:07;3.70;;;2.00;;
68744;SDS011;55731;45.456;11.064;2022-11-20T05:35:08;5.90;;;2.90;;
68744;SDS011;55731;45.456;11.064;2022-11-20T05:37:46;4.00;;;2.70;;
68744;SDS011;55731;45.456;11.064;2022-11-20T05:40:23;6.00;;;2.40;;
68744;SDS011;55731;45.456;11.064;2022-11-20T05:43:01;4.70;;;2.30;;
68744;SDS011;55731;45.456;11.064;2022-11-20T05:45:37;3.50;;;2.20;;
68744;SDS011;55731;45.456;11.064;2022-11-20T05:48:13;3.70;;;2.50;;
68744;SDS011;55731;45.456;11.064;2022-11-20T05:50:50;4.90;;;2.80;;
68744;SDS011;55731;45.456;11.064;2022-11-20T05:53:26;4.30;;;2.30;;
68744;SDS011;55731;45.456;11.064;2022-11-20T05:56:06;4.20;;;2.70;;
68744;SDS011;55731;45.456;11.064;2022-11-20T05:58:44;4.00;;;2.20;;
68744;SDS011;55731;45.456;11.064;2022-11-20T06:01:21;4.90;;;2.60;;
68744;SDS011;55731;45.456;11.064;2022-11-20T06:04:00;3.10;;;2.10;;
68744;SDS011;55731;45.456;11.064;2022-11-20T06:06:37;3.50;;;2.00;;
68744;SDS011;55731;45.456;11.064;2022-11-20T06:09:14;7.50;;;2.20;;
68744;SDS011;55731;45.456;11.064;2022-11-20T06:11:51;4.70;;;2.40;;
68744;SDS011;55731;45.456;11.064;2022-11-20T06:14:28;4.70;;;2.50;;
68744;SDS011;55731;45.456;11.064;2022-11-20T06:17:05;4.80;;;2.20;;
68744;SDS011;55731;45.456;11.064;2022-11-20T06:19:42;3.40;;;2.10;;
68744;SDS011;55731;45.456;11.064;2022-11-20T06:22:19;3.40;;;1.90;;
68744;SDS011;55731;45.456;11.064;2022-11-20T06:24:56;4.10;;;2.60;;
68744;SDS011;55731;45.456;11.064;2022-11-20T06:27:32;4.00;;;2.50;;
68744;SDS011;55731;45.456;11.064;2022-11-20T06:30:14;5.00;;;2.60;;
68744;SDS011;55731;45.456;11.064;2022-11-20T06:32:52;4.60;;;2.70;;
68744;SDS011;55731;45.456;11.064;2022-11-20T06:35:29;3.80;;;2.30;;
68744;SDS011;55731;45.456;11.064;2022-11-20T06:38:06;7.00;;;3.30;;
68744;SDS011;55731;45.456;11.064;2022-11-20T06:40:43;5.30;;;3.00;;
68744;SDS011;55731;45.456;11.064;2022-11-20T06:43:20;4.10;;;2.40;;
68744;SDS011;55731;45.456;11.064;2022-11-20T06:45:58;6.30;;;2.90;;
68744;SDS011;55731;45.456;11.064;2022-11-20T06:48:34;4.00;;;2.30;;
68744;SDS011;55731;45.456;11.064;2022-11-20T06:51:11;4.10;;;2.50;;
68744;SDS011;55731;45.456;11.064;2022-11-20T06:53:48;3.90;;;2.70;;
68744;SDS011;55731;45.456;11.064;2022-11-20T06:56:25;4.20;;;2.30;;
68744;SDS011;55731;45.456;11.064;2022-11-20T06:59:06;3.90;;;2.40;;
68744;SDS011;55731;45.456;11.064;2022-11-20T07:01:43;4.40;;;2.20;;
68744;SDS011;55731;45.456;11.064;2022-11-20T07:04:20;5.10;;;2.50;;
68744;SDS011;55731;45.456;11.064;2022-11-20T07:06:58;3.90;;;2.40;;
68744;SDS011;55731;45.456;11.064;2022-11-20T07:09:34;3.60;;;2.20;;
68744;SDS011;55731;45.456;11.064;2022-11-20T07:12:10;4.10;;;2.60;;
68744;SDS011;55731;45.456;11.064;2022-11-20T07:14:47;6.10;;;2.40;;
68744;SDS011;55731;45.456;11.064;2022-11-20T07:17:24;4.30;;;2.50;;
68744;SDS011;55731;45.456;11.064;2022-11-20T07:20:00;4.70;;;2.50;;
68744;SDS011;55731;45.456;11.064;2022-11-20T07:22:38;4.10;;;2.60;;
68744;SDS011;55731;45.456;11.064;2022-11-20T07:25:14;4.60;;;2.80;;
68744;SDS011;55731;45.456;11.064;2022-11-20T07:27:51;5.00;;;2.70;;
68744;SDS011;55731;45.456;11.064;2022-11-20T07:30:30;4.20;;;2.30;;
68744;SDS011;55731;45.456;11.064;2022-11-20T07:33:06;5.60;;;2.40;;
68744;SDS011;55731;45.456;11.064;2022-11-20T07:35:43;5.30;;;2.90;;
68744;SDS011;55731;45.456;11.064;2022-11-20T07:38:20;3.70;;;2.70;;
68744;SDS011;55731;45.456;11.064;2022-11-20T07:40:58;4.40;;;2.70;;
68744;SDS011;55731;45.456;11.064;2022-11-20T07:43:35;6.90;;;3.00;;
68744;SDS011;55731;45.456;11.064;2022-11-20T07:46:11;4.70;;;2.90;;
68744;SDS011;55731;45.456;11.064;2022-11-20T07:48:48;6.60;;;2.90;;
68744;SDS011;55731;45.456;11.064;2022-11-20T07:51:25;5.40;;;3.10;;
68744;SDS011;55731;45.456;11.064;2022-11-20T07:54:01;5.10;;;2.60;;
68744;SDS011;55731;45.456;11.064;2022-11-20T07:56:38;4.30;;;3.10;;
68744;SDS011;55731;45.456;11.064;2022-11-20T07:59:15;5.80;;;3.10;;
68744;SDS011;55731;45.456;11.064;2022-11-20T08:01:51;5.50;;;3.20;;
68744;SDS011;55731;45.456;11.064;2022-11-20T08:04:26;7.00;;;3.40;;
68744;SDS011;55731;45.456;11.064;2022-11-20T08:07:03;7.40;;;4.50;;
68744;SDS011;55731;45.456;11.064;2022-11-20T08:09:40;8.40;;;6.00;;
68744;SDS011;55731;45.456;11.064;2022-11-20T08:12:20;10.70;;;5.70;;
68744;SDS011;55731;45.456;11.064;2022-11-20T08:15:14;7.30;;;5.30;;
68744;SDS011;55731;45.456;11.064;2022-11-20T08:17:51;7.00;;;4.40;;
68744;SDS011;55731;45.456;11.064;2022-11-20T08:20:52;7.10;;;4.10;;
68744;SDS011;55731;45.456;11.064;2022-11-20T08:23:29;14.20;;;4.90;;
68744;SDS011;55731;45.456;11.064;2022-11-20T08:26:06;5.50;;;3.30;;
68744;SDS011;55731;45.456;11.064;2022-11-20T08:28:43;6.10;;;2.90;;
68744;SDS011;55731;45.456;11.064;2022-11-20T08:31:20;4.60;;;3.00;;
68744;SDS011;55731;45.456;11.064;2022-11-20T08:34:06;4.60;;;3.00;;
68744;SDS011;55731;45.456;11.064;2022-11-20T08:36:49;5.90;;;2.80;;
68744;SDS011;55731;45.456;11.064;2022-11-20T08:39:26;5.30;;;3.20;;
68744;SDS011;55731;45.456;11.064;2022-11-20T08:42:06;4.60;;;3.20;;
68744;SDS011;55731;45.456;11.064;2022-11-20T08:44:41;6.60;;;4.20;;
68744;SDS011;55731;45.456;11.064;2022-11-20T08:47:18;7.70;;;3.90;;
68744;SDS011;55731;45.456;11.064;2022-11-20T08:49:55;6.90;;;3.70;;
68744;SDS011;55731;45.456;11.064;2022-11-20T08:52:32;5.20;;;4.10;;
68744;SDS011;55731;45.456;11.064;2022-11-20T08:55:11;6.60;;;3.40;;
68744;SDS011;55731;45.456;11.064;2022-11-20T08:57:47;5.50;;;3.50;;
68744;SDS011;55731;45.456;11.064;2022-11-20T09:00:25;5.90;;;3.60;;
68744;SDS011;55731;45.456;11.064;2022-11-20T09:03:02;6.20;;;3.70;;
68744;SDS011;55731;45.456;11.064;2022-11-20T09:05:38;5.70;;;3.00;;
68744;SDS011;55731;45.456;11.064;2022-11-20T09:08:16;4.50;;;3.00;;
68744;SDS011;55731;45.456;11.064;2022-11-20T09:10:55;4.80;;;3.10;;
68744;SDS011;55731;45.456;11.064;2022-11-20T09:13:32;4.60;;;3.00;;
68744;SDS011;55731;45.456;11.064;2022-11-20T09:16:10;4.80;;;3.00;;
68744;SDS011;55731;45.456;11.064;2022-11-20T09:18:49;5.70;;;2.80;;
68744;SDS011;55731;45.456;11.064;2022-11-20T09:21:46;4.90;;;2.90;;
68744;SDS011;55731;45.456;11.064;2022-11-20T09:24:29;8.20;;;3.20;;
68744;SDS011;55731;45.456;11.064;2022-11-20T09:27:06;4.10;;;2.80;;
68744;SDS011;55731;45.456;11.064;2022-11-20T09:29:43;5.00;;;3.20;;
68744;SDS011;55731;45.456;11.064;2022-11-20T09:32:19;4.90;;;3.00;;
68744;SDS011;55731;45.456;11.064;2022-11-20T09:34:56;5.90;;;3.30;;
68744;SDS011;55731;45.456;11.064;2022-11-20T09:37:32;4.80;;;3.10;;
68744;SDS011;55731;45.456;11.064;2022-11-20T09:40:21;5.30;;;3.30;;
68744;SDS011;55731;45.456;11.064;2022-11-20T09:43:01;6.00;;;3.30;;
68744;SDS011;55731;45.456;11.064;2022-11-20T09:46:04;4.90;;;2.90;;
68744;SDS011;55731;45.456;11.064;2022-11-20T09:48:54;4.10;;;2.40;;
68744;SDS011;55731;45.456;11.064;2022-11-20T09:51:46;4.50;;;2.40;;
68744;SDS011;55731;45.456;11.064;2022-11-20T09:54:33;4.40;;;2.20;;
68744;SDS011;55731;45.456;11.064;2022-11-20T09:57:17;4.10;;;2.50;;
68744;SDS011;55731;45.456;11.064;2022-11-20T09:59:58;4.00;;;2.40;;
68744;SDS011;55731;45.456;11.064;2022-11-20T10:02:47;4.60;;;2.20;;
68744;SDS011;55731;45.456;11.064;2022-11-20T10:05:31;6.50;;;2.70;;
68744;SDS011;55731;45.456;11.064;2022-11-20T10:08:19;3.90;;;2.20;;
68744;SDS011;55731;45.456;11.064;2022-11-20T10:11:08;4.80;;;2.60;;
68744;SDS011;55731;45.456;11.064;2022-11-20T10:13:59;4.30;;;2.50;;
68744;SDS011;55731;45.456;11.064;2022-11-20T10:16:53;4.50;;;2.70;;
68744;SDS011;55731;45.456;11.064;2022-11-20T10:19:54;5.90;;;2.90;;
68744;SDS011;55731;45.456;11.064;2022-11-20T10:22:59;5.20;;;2.70;;
68744;SDS011;55731;45.456;11.064;2022-11-20T10:26:02;7.20;;;2.80;;
68744;SDS011;55731;45.456;11.064;2022-11-20T10:28:58;4.60;;;3.00;;
68744;SDS011;55731;45.456;11.064;2022-11-20T10:31:44;4.50;;;3.40;;
68744;SDS011;55731;45.456;11.064;2022-11-20T10:34:28;5.10;;;3.30;;
68744;SDS011;55731;45.456;11.064;2022-11-20T10:37:16;7.80;;;3.70;;
68744;SDS011;55731;45.456;11.064;2022-11-20T10:40:00;5.60;;;3.30;;
68744;SDS011;55731;45.456;11.064;2022-11-20T10:42:49;6.20;;;3.70;;
68744;SDS011;55731;45.456;11.064;2022-11-20T10:45:43;6.40;;;3.50;;
68744;SDS011;55731;45.456;11.064;2022-11-20T10:48:25;5.30;;;3.20;;
68744;SDS011;55731;45.456;11.064;2022-11-20T10:51:13;7.30;;;3.60;;
68744;SDS011;55731;45.456;11.064;2022-11-20T10:54:08;9.50;;;3.50;;
68744;SDS011;55731;45.456;11.064;2022-11-20T10:56:56;6.10;;;3.30;;
68744;SDS011;55731;45.456;11.064;2022-11-20T11:02:51;5.40;;;2.70;;
68744;SDS011;55731;45.456;11.064;2022-11-20T11:05:40;5.00;;;2.70;;
68744;SDS011;55731;45.456;11.064;2022-11-20T11:08:21;5.10;;;2.90;;
68744;SDS011;55731;45.456;11.064;2022-11-20T11:11:02;6.00;;;2.90;;
68744;SDS011;55731;45.456;11.064;2022-11-20T11:13:52;5.00;;;3.10;;
68744;SDS011;55731;45.456;11.064;2022-11-20T11:16:40;4.90;;;3.20;;
68744;SDS011;55731;45.456;11.064;2022-11-20T11:19:26;4.80;;;2.90;;
68744;SDS011;55731;45.456;11.064;2022-11-20T11:22:19;9.30;;;3.70;;
68744;SDS011;55731;45.456;11.064;2022-11-20T11:24:57;4.00;;;2.80;;
68744;SDS011;55731;45.456;11.064;2022-11-20T11:27:34;4.10;;;2.60;;
68744;SDS011;55731;45.456;11.064;2022-11-20T11:30:22;6.40;;;2.70;;
68744;SDS011;55731;45.456;11.064;2022-11-20T11:33:11;4.90;;;3.00;;
68744;SDS011;55731;45.456;11.064;2022-11-20T11:35:54;5.20;;;3.10;;
68744;SDS011;55731;45.456;11.064;2022-11-20T11:38:35;5.00;;;3.20;;
68744;SDS011;55731;45.456;11.064;2022-11-20T11:41:19;6.50;;;3.20;;
68744;SDS011;55731;45.456;11.064;2022-11-20T11:44:00;7.40;;;3.60;;
68744;SDS011;55731;45.456;11.064;2022-11-20T11:47:22;6.10;;;3.40;;
68744;SDS011;55731;45.456;11.064;2022-11-20T11:50:16;4.60;;;3.40;;
68744;SDS011;55731;45.456;11.064;2022-11-20T11:55:54;5.40;;;3.10;;
68744;SDS011;55731;45.456;11.064;2022-11-20T11:58:43;5.50;;;3.00;;
68744;SDS011;55731;45.456;11.064;2022-11-20T12:01:27;4.90;;;3.00;;
68744;SDS011;55731;45.456;11.064;2022-11-20T12:04:17;5.20;;;3.00;;
68744;SDS011;55731;45.456;11.064;2022-11-20T12:07:06;5.80;;;3.50;;
68744;SDS011;55731;45.456;11.064;2022-11-20T12:10:16;5.10;;;3.10;;
68744;SDS011;55731;45.456;11.064;2022-11-20T12:12:58;6.20;;;3.90;;
68744;SDS011;55731;45.456;11.064;2022-11-20T12:15:46;5.60;;;3.90;;
68744;SDS011;55731;45.456;11.064;2022-11-20T12:18:24;7.20;;;4.00;;
68744;SDS011;55731;45.456;11.064;2022-11-20T12:21:17;6.40;;;4.20;;
68744;SDS011;55731;45.456;11.064;2022-11-20T12:24:13;7.20;;;4.30;;
68744;SDS011;55731;45.456;11.064;2022-11-20T12:27:25;7.90;;;5.30;;
68744;SDS011;55731;45.456;11.064;2022-11-20T12:30:17;8.40;;;5.10;;
68744;SDS011;55731;45.456;11.064;2022-11-20T12:36:19;8.10;;;5.70;;
68744;SDS011;55731;45.456;11.064;2022-11-20T12:39:22;9.30;;;5.50;;
68744;SDS011;55731;45.456;11.064;2022-11-20T12:42:27;9.60;;;7.00;;
68744;SDS011;55731;45.456;11.064;2022-11-20T12:45:41;12.10;;;6.80;;
68744;SDS011;55731;45.456;11.064;2022-11-20T12:54:56;11.90;;;8.20;;
68744;SDS011;55731;45.456;11.064;2022-11-20T12:57:49;14.20;;;9.10;;
68744;SDS011;55731;45.456;11.064;2022-11-20T13:00:27;14.60;;;8.70;;
68744;SDS011;55731;45.456;11.064;2022-11-20T13:03:17;14.80;;;9.00;;
68744;SDS011;55731;45.456;11.064;2022-11-20T13:06:18;13.20;;;9.10;;
68744;SDS011;55731;45.456;11.064;2022-11-20T13:08:56;13.80;;;8.70;;
68744;SDS011;55731;45.456;11.064;2022-11-20T13:11:40;14.20;;;9.70;;
68744;SDS011;55731;45.456;11.064;2022-11-20T13:14:29;18.40;;;10.20;;
68744;SDS011;55731;45.456;11.064;2022-11-20T13:17:16;15.30;;;10.60;;
68744;SDS011;55731;45.456;11.064;2022-11-20T13:19:58;17.40;;;10.90;;
68744;SDS011;55731;45.456;11.064;2022-11-20T13:22:46;16.70;;;9.30;;
68744;SDS011;55731;45.456;11.064;2022-11-20T13:25:28;18.50;;;10.40;;
68744;SDS011;55731;45.456;11.064;2022-11-20T13:31:02;17.90;;;10.20;;
68744;SDS011;55731;45.456;11.064;2022-11-20T13:33:49;16.30;;;9.80;;
68744;SDS011;55731;45.456;11.064;2022-11-20T13:36:30;15.60;;;10.00;;
68744;SDS011;55731;45.456;11.064;2022-11-20T13:39:09;19.00;;;11.20;;
68744;SDS011;55731;45.456;11.064;2022-11-20T13:41:56;16.00;;;10.00;;
68744;SDS011;55731;45.456;11.064;2022-11-20T13:44:37;17.20;;;10.90;;
68744;SDS011;55731;45.456;11.064;2022-11-20T13:47:23;18.60;;;11.30;;
68744;SDS011;55731;45.456;11.064;2022-11-20T13:50:00;17.40;;;11.50;;
68744;SDS011;55731;45.456;11.064;2022-11-20T13:52:51;18.20;;;10.30;;
68744;SDS011;55731;45.456;11.064;2022-11-20T13:55:40;14.60;;;9.70;;
68744;SDS011;55731;45.456;11.064;2022-11-20T13:58:30;18.50;;;10.80;;
68744;SDS011;55731;45.456;11.064;2022-11-20T14:01:26;20.40;;;12.70;;
68744;SDS011;55731;45.456;11.064;2022-11-20T14:04:11;18.20;;;11.30;;
68744;SDS011;55731;45.456;11.064;2022-11-20T14:07:00;19.50;;;11.90;;
68744;SDS011;55731;45.456;11.064;2022-11-20T14:09:48;21.00;;;11.90;;
68744;SDS011;55731;45.456;11.064;2022-11-20T14:12:30;19.10;;;11.70;;
68744;SDS011;55731;45.456;11.064;2022-11-20T14:15:28;17.60;;;11.50;;
68744;SDS011;55731;45.456;11.064;2022-11-20T14:18:20;23.20;;;13.00;;
68744;SDS011;55731;45.456;11.064;2022-11-20T14:21:02;20.20;;;12.90;;
68744;SDS011;55731;45.456;11.064;2022-11-20T14:23:42;21.10;;;12.90;;
68744;SDS011;55731;45.456;11.064;2022-11-20T14:26:20;21.80;;;13.50;;
68744;SDS011;55731;45.456;11.064;2022-11-20T14:28:57;20.80;;;12.50;;
68744;SDS011;55731;45.456;11.064;2022-11-20T14:31:33;20.50;;;13.10;;
68744;SDS011;55731;45.456;11.064;2022-11-20T14:34:17;19.10;;;12.10;;
68744;SDS011;55731;45.456;11.064;2022-11-20T14:36:58;21.40;;;13.30;;
68744;SDS011;55731;45.456;11.064;2022-11-20T14:39:37;22.80;;;14.20;;
68744;SDS011;55731;45.456;11.064;2022-11-20T14:42:19;18.80;;;12.10;;
68744;SDS011;55731;45.456;11.064;2022-11-20T14:44:58;20.20;;;11.90;;
68744;SDS011;55731;45.456;11.064;2022-11-20T14:47:35;22.20;;;11.20;;
68744;SDS011;55731;45.456;11.064;2022-11-20T14:50:17;22.60;;;12.40;;
68744;SDS011;55731;45.456;11.064;2022-11-20T14:52:58;19.50;;;12.70;;
68744;SDS011;55731;45.456;11.064;2022-11-20T14:55:36;18.10;;;12.50;;
68744;SDS011;55731;45.456;11.064;2022-11-20T14:58:24;17.30;;;11.20;;
68744;SDS011;55731;45.456;11.064;2022-11-20T15:01:02;21.70;;;12.10;;
68744;SDS011;55731;45.456;11.064;2022-11-20T15:03:40;19.70;;;12.40;;
68744;SDS011;55731;45.456;11.064;2022-11-20T15:06:26;20.30;;;12.50;;
68744;SDS011;55731;45.456;11.064;2022-11-20T15:09:04;19.60;;;10.50;;
68744;SDS011;55731;45.456;11.064;2022-11-20T15:11:55;20.30;;;12.60;;
68744;SDS011;55731;45.456;11.064;2022-11-20T15:14:33;17.60;;;11.80;;
68744;SDS011;55731;45.456;11.064;2022-11-20T15:17:13;18.80;;;12.10;;
68744;SDS011;55731;45.456;11.064;2022-11-20T15:19:50;19.90;;;12.20;;
68744;SDS011;55731;45.456;11.064;2022-11-20T15:22:28;19.00;;;11.80;;
68744;SDS011;55731;45.456;11.064;2022-11-20T15:25:13;19.60;;;12.70;;
68744;SDS011;55731;45.456;11.064;2022-11-20T15:27:54;20.40;;;12.50;;
68744;SDS011;55731;45.456;11.064;2022-11-20T15:30:31;18.60;;;11.70;;
68744;SDS011;55731;45.456;11.064;2022-11-20T15:33:09;19.10;;;11.90;;
68744;SDS011;55731;45.456;11.064;2022-11-20T15:35:46;22.80;;;13.90;;
68744;SDS011;55731;45.456;11.064;2022-11-20T15:38:22;18.70;;;12.40;;
68744;SDS011;55731;45.456;11.064;2022-11-20T15:40:59;19.70;;;13.30;;
68744;SDS011;55731;45.456;11.064;2022-11-20T15:43:35;19.80;;;12.90;;
68744;SDS011;55731;45.456;11.064;2022-11-20T15:46:14;23.30;;;15.40;;
68744;SDS011;55731;45.456;11.064;2022-11-20T15:48:56;23.00;;;15.60;;
68744;SDS011;55731;45.456;11.064;2022-11-20T15:51:35;27.20;;;15.70;;
68744;SDS011;55731;45.456;11.064;2022-11-20T15:54:14;42.20;;;20.70;;
68744;SDS011;55731;45.456;11.064;2022-11-20T15:56:53;28.90;;;15.50;;
68744;SDS011;55731;45.456;11.064;2022-11-20T15:59:32;26.20;;;15.10;;
68744;SDS011;55731;45.456;11.064;2022-11-20T16:02:13;24.10;;;14.60;;
68744;SDS011;55731;45.456;11.064;2022-11-20T16:04:50;24.20;;;14.60;;
68744;SDS011;55731;45.456;11.064;2022-11-20T16:07:27;24.10;;;14.70;;
68744;SDS011;55731;45.456;11.064;2022-11-20T16:10:05;25.90;;;15.30;;
68744;SDS011;55731;45.456;11.064;2022-11-20T16:12:45;23.40;;;14.20;;